X  Cerrar Datos meteorológicos de aviación METAR        EBOS Ostend-Bruges International Airport
Temperatura
12°C Temperatura
10°C Punto de rocío
88% Humedad



Viento
8 MPH
13 KM/H
4 M/S
7 NUDO



230°
SO
Condiciones actuales

Mostly Clear Mayormente cielo despejado
Presión 1016 (hPa) - 30 (inHg)
Visibilidad 6 (milla) - 10 (km)
Aeropuerto
Código de aeropuerto EBOS

localidad: Ostend-Bruges International Airport
Distancia: 60 (mi)

Metar:
METAR EBOS 270220Z 23007KT CAVOK 12/10 Q1016 NOSIG

Hora: 27-05-2024 04:20 CEST